Time;durP1;ratioP1;P1;durP2;ratioP2;P2;SDS_P1;SDS_P2;PMS_P1;PMS_P2;Temp;Humidity;BMP_temperature;BMP_pressure;BME280_temperature;BME280_humidity;BME280_pressure;Samples;Min_cycle;Max_cycle;Signal;HPM_P1;HPM_P2
2022/03/02 01:20:54;;;;;;;25.90;10.07;;;;;;;;;;6157247;23;20212;-88
2022/03/02 01:23:59;;;;;;;27.97;10.60;;;;;;;;;;6180476;23;20171;-87
2022/03/02 01:27:04;;;;;;;28.30;10.87;;;;;;;;;;6177770;23;20172;-89
2022/03/02 01:30:10;;;;;;;26.57;10.83;;;;;;;;;;6179265;23;20171;-88
2022/03/02 01:33:16;;;;;;;24.73;10.20;;;;;;;;;;6179832;23;20278;-88
2022/03/02 01:36:22;;;;;;;24.70;9.27;;;;;;;;;;6179098;23;20168;-88
2022/03/02 01:39:28;;;;;;;20.03;8.17;;;;;;;;;;6195275;23;20744;-90
2022/03/02 01:42:33;;;;;;;20.20;9.70;;;;;;;;;;6194140;23;20192;-87
2022/03/02 01:45:38;;;;;;;21.73;9.23;;;;;;;;;;6178220;23;20186;-88
2022/03/02 01:48:44;;;;;;;26.40;9.90;;;;;;;;;;6196003;23;20499;-90
2022/03/02 01:51:50;;;;;;;22.97;9.70;;;;;;;;;;6195448;23;20264;-90
2022/03/02 01:54:55;;;;;;;24.87;9.90;;;;;;;;;;6195943;23;20708;-90
2022/03/02 01:58:00;;;;;;;24.20;10.23;;;;;;;;;;6178334;23;20232;-90
2022/03/02 02:01:06;;;;;;;24.07;10.23;;;;;;;;;;6178077;23;20192;-89
2022/03/02 02:04:12;;;;;;;25.07;9.70;;;;;;;;;;6181488;23;20239;-89
2022/03/02 02:07:18;;;;;;;24.47;9.83;;;;;;;;;;6198076;23;20176;-89
2022/03/02 02:10:23;;;;;;;23.97;9.60;;;;;;;;;;6199186;23;20594;-90
2022/03/02 02:13:30;;;;;;;22.73;8.73;;;;;;;;;;6199453;23;20671;-88
2022/03/02 02:16:34;;;;;;;25.17;9.30;;;;;;;;;;6181447;23;20191;-90
2022/03/02 02:19:39;;;;;;;27.03;9.33;;;;;;;;;;6196791;23;20239;-89
2022/03/02 02:22:47;;;;;;;24.20;9.63;;;;;;;;;;6197815;23;20187;-91
2022/03/02 02:25:52;;;;;;;25.77;10.33;;;;;;;;;;6196515;23;20268;-89
2022/03/02 02:28:58;;;;;;;27.93;10.60;;;;;;;;;;6179593;23;20164;-88
2022/03/02 02:32:03;;;;;;;22.93;9.63;;;;;;;;;;6178397;23;20237;-89
2022/03/02 02:35:09;;;;;;;26.50;10.63;;;;;;;;;;6198553;23;20242;-88
2022/03/02 02:38:17;;;;;;;27.30;11.30;;;;;;;;;;6180082;23;20228;-90
2022/03/02 02:41:22;;;;;;;24.90;10.07;;;;;;;;;;6196114;23;20159;-89
2022/03/02 02:44:27;;;;;;;25.77;10.60;;;;;;;;;;6177799;23;20243;-90
2022/03/02 02:47:32;;;;;;;22.37;9.80;;;;;;;;;;6178550;23;20171;-89
2022/03/02 02:50:37;;;;;;;27.90;10.43;;;;;;;;;;6197305;23;20156;-89
2022/03/02 02:53:44;;;;;;;19.63;7.83;;;;;;;;;;6181937;23;20176;-90
2022/03/02 02:56:49;;;;;;;31.27;9.63;;;;;;;;;;6197471;23;20192;-89
2022/03/02 02:59:55;;;;;;;23.10;9.40;;;;;;;;;;6180373;23;20172;-89
2022/03/02 03:03:04;;;;;;;29.17;10.30;;;;;;;;;;6179386;23;20184;-89
2022/03/02 03:06:10;;;;;;;23.90;9.30;;;;;;;;;;6178763;23;20211;-89
2022/03/02 03:09:16;;;;;;;25.73;10.30;;;;;;;;;;6195646;23;20195;-89
2022/03/02 03:12:21;;;;;;;24.07;10.50;;;;;;;;;;6178293;23;20163;-88
2022/03/02 03:15:28;;;;;;;24.40;10.17;;;;;;;;;;6179906;23;20196;-89
2022/03/02 03:18:32;;;;;;;23.00;10.20;;;;;;;;;;6180588;23;20175;-89
2022/03/02 03:21:39;;;;;;;29.50;10.00;;;;;;;;;;6146658;23;20189;-89
2022/03/02 03:24:45;;;;;;;26.97;10.30;;;;;;;;;;6168001;23;20164;-89
2022/03/02 03:27:53;;;;;;;26.10;10.10;;;;;;;;;;6167051;23;20498;-89
2022/03/02 03:30:58;;;;;;;22.50;9.07;;;;;;;;;;6168437;23;20168;-87
2022/03/02 03:34:03;;;;;;;24.87;9.97;;;;;;;;;;6165582;23;20164;-89
2022/03/02 03:37:08;;;;;;;29.67;10.03;;;;;;;;;;6165605;23;20177;-88
2022/03/02 03:40:16;;;;;;;21.50;10.03;;;;;;;;;;6167078;23;20168;-88
2022/03/02 03:43:21;;;;;;;21.43;9.30;;;;;;;;;;6165923;23;20220;-89
2022/03/02 03:46:26;;;;;;;27.37;10.43;;;;;;;;;;6166144;23;20247;-89
2022/03/02 03:49:31;;;;;;;28.60;10.50;;;;;;;;;;6167284;23;20180;-87
2022/03/02 03:52:36;;;;;;;28.70;10.40;;;;;;;;;;6164715;23;20169;-88
2022/03/02 03:55:42;;;;;;;27.53;10.53;;;;;;;;;;6165367;23;20187;-90
2022/03/02 03:58:47;;;;;;;25.53;10.77;;;;;;;;;;6166844;23;20201;-88
2022/03/02 04:01:52;;;;;;;24.30;9.90;;;;;;;;;;6166614;23;20169;-89
2022/03/02 04:04:57;;;;;;;24.60;9.57;;;;;;;;;;6165570;23;20172;-88
2022/03/02 04:08:02;;;;;;;22.80;9.40;;;;;;;;;;6165252;23;20216;-88
2022/03/02 04:11:08;;;;;;;25.90;10.40;;;;;;;;;;6166689;23;20267;-88
2022/03/02 04:14:13;;;;;;;25.83;10.17;;;;;;;;;;6165303;23;20217;-87
2022/03/02 04:17:18;;;;;;;28.97;11.13;;;;;;;;;;6164498;23;20172;-89
2022/03/02 04:20:23;;;;;;;25.07;9.70;;;;;;;;;;6166184;23;20173;-89
2022/03/02 04:23:28;;;;;;;22.60;9.63;;;;;;;;;;6194705;23;20675;-89
2022/03/02 04:26:35;;;;;;;22.90;10.87;;;;;;;;;;6194144;23;20211;-89
2022/03/02 04:29:40;;;;;;;26.53;9.67;;;;;;;;;;6179522;23;20171;-88
2022/03/02 04:32:45;;;;;;;23.03;9.03;;;;;;;;;;6196500;23;20172;-88
2022/03/02 04:35:50;;;;;;;22.40;9.90;;;;;;;;;;6196304;23;20192;-89
2022/03/02 04:38:55;;;;;;;27.07;10.60;;;;;;;;;;6198844;23;20630;-88
2022/03/02 04:42:02;;;;;;;23.60;10.10;;;;;;;;;;6180801;23;20553;-89
2022/03/02 04:45:07;;;;;;;26.50;11.00;;;;;;;;;;6180698;23;20168;-88
2022/03/02 04:48:12;;;;;;;28.33;11.03;;;;;;;;;;6181380;23;20175;-89
2022/03/02 04:51:17;;;;;;;26.90;10.13;;;;;;;;;;6182232;23;20184;-88
2022/03/02 04:57:48;;;;;;;30.13;10.27;;;;;;;;;;6179790;23;20171;-88
2022/03/02 05:00:54;;;;;;;26.50;9.83;;;;;;;;;;6179200;23;20176;-87
2022/03/02 05:03:59;;;;;;;24.13;9.63;;;;;;;;;;6197444;23;20200;-90
2022/03/02 05:07:05;;;;;;;24.53;9.63;;;;;;;;;;6197121;23;20247;-89
2022/03/02 05:10:10;;;;;;;31.60;10.73;;;;;;;;;;6198940;23;20261;-89
2022/03/02 05:13:17;;;;;;;23.17;7.80;;;;;;;;;;6181896;23;20171;-89
2022/03/02 05:16:23;;;;;;;24.27;10.17;;;;;;;;;;6197949;23;20176;-90
2022/03/02 05:19:28;;;;;;;25.50;10.17;;;;;;;;;;6181471;23;20207;-89
2022/03/02 05:22:32;;;;;;;22.67;9.77;;;;;;;;;;6169065;23;20199;-89
2022/03/02 05:25:37;;;;;;;18.40;8.27;;;;;;;;;;6169629;23;20176;-90
2022/03/02 05:28:44;;;;;;;20.83;9.53;;;;;;;;;;6168373;23;20172;-89
2022/03/02 05:31:50;;;;;;;24.70;9.47;;;;;;;;;;6167500;23;20193;-88
2022/03/02 05:34:55;;;;;;;26.77;9.90;;;;;;;;;;6166113;23;20693;-88
2022/03/02 05:38:00;;;;;;;30.70;11.17;;;;;;;;;;6166548;23;20168;-89
2022/03/02 05:41:04;;;;;;;27.30;10.60;;;;;;;;;;6167984;23;20177;-87
2022/03/02 05:44:12;;;;;;;23.53;9.27;;;;;;;;;;6167774;23;20260;-89
2022/03/02 05:47:17;;;;;;;24.23;9.47;;;;;;;;;;6184306;23;20176;-89
2022/03/02 05:50:22;;;;;;;20.33;9.33;;;;;;;;;;6168743;23;20176;-89
2022/03/02 05:53:27;;;;;;;24.40;8.83;;;;;;;;;;6169215;23;20177;-89
2022/03/02 05:56:33;;;;;;;21.00;9.27;;;;;;;;;;6169172;23;20197;-89
2022/03/02 05:59:39;;;;;;;26.53;9.97;;;;;;;;;;6169612;23;20216;-90
2022/03/02 06:02:44;;;;;;;23.33;9.43;;;;;;;;;;6169360;23;20759;-88
2022/03/02 06:05:52;;;;;;;28.67;9.43;;;;;;;;;;6167590;23;20640;-89
2022/03/02 06:09:14;;;;;;;24.97;9.83;;;;;;;;;;6168249;23;20172;-89
2022/03/02 06:12:20;;;;;;;24.43;9.13;;;;;;;;;;6169282;23;20229;-86
2022/03/02 06:15:26;;;;;;;23.80;10.07;;;;;;;;;;6167783;23;20173;-89
2022/03/02 06:18:31;;;;;;;26.87;9.43;;;;;;;;;;6167283;23;20175;-88
2022/03/02 06:21:38;;;;;;;25.47;9.70;;;;;;;;;;6168227;23;20180;-88
2022/03/02 06:24:44;;;;;;;24.80;11.10;;;;;;;;;;6171058;23;20176;-90
2022/03/02 06:27:49;;;;;;;23.10;9.07;;;;;;;;;;6171132;23;20193;-89
2022/03/02 06:30:56;;;;;;;30.70;9.83;;;;;;;;;;6168036;23;20164;-90
2022/03/02 06:34:02;;;;;;;26.63;10.50;;;;;;;;;;6167289;23;20178;-87
2022/03/02 06:37:07;;;;;;;25.83;9.83;;;;;;;;;;6166130;23;20208;-89
2022/03/02 06:40:14;;;;;;;32.47;10.90;;;;;;;;;;6167036;23;20611;-89
2022/03/02 06:43:22;;;;;;;20.60;8.47;;;;;;;;;;6168576;23;20160;-88
2022/03/02 06:46:31;;;;;;;22.97;9.47;;;;;;;;;;6169012;23;20173;-89
2022/03/02 06:49:46;;;;;;;24.10;9.77;;;;;;;;;;6167359;23;20176;-89
2022/03/02 06:52:54;;;;;;;26.83;10.60;;;;;;;;;;6169550;23;20616;-90
2022/03/02 06:56:00;;;;;;;27.07;10.10;;;;;;;;;;6167385;23;20196;-90
2022/03/02 06:59:06;;;;;;;20.27;8.93;;;;;;;;;;6171346;23;20176;-88
2022/03/02 07:02:13;;;;;;;19.17;9.00;;;;;;;;;;6170496;23;20651;-88
2022/03/02 07:05:19;;;;;;;26.17;9.67;;;;;;;;;;6169394;23;20237;-89
2022/03/02 07:08:25;;;;;;;19.07;9.53;;;;;;;;;;6167381;23;20192;-89
2022/03/02 07:11:34;;;;;;;23.67;9.23;;;;;;;;;;6169825;23;20156;-88
2022/03/02 07:14:40;;;;;;;22.03;9.13;;;;;;;;;;6171247;23;20168;-89
2022/03/02 07:17:47;;;;;;;19.27;7.60;;;;;;;;;;6173981;23;20200;-89
2022/03/02 07:20:52;;;;;;;23.00;9.40;;;;;;;;;;6177030;23;20260;-89
2022/03/02 07:24:03;;;;;;;31.70;8.93;;;;;;;;;;6199560;23;20159;-89
2022/03/02 07:27:08;;;;;;;27.70;9.67;;;;;;;;;;6202167;23;20196;-91
2022/03/02 07:30:14;;;;;;;25.07;10.30;;;;;;;;;;6198811;23;20179;-89
2022/03/02 07:33:22;;;;;;;26.63;8.97;;;;;;;;;;6184239;23;20191;-88
2022/03/02 07:36:30;;;;;;;24.00;7.87;;;;;;;;;;6201791;23;20511;-90
2022/03/02 07:42:55;;;;;;;18.37;7.83;;;;;;;;;;6185862;23;20202;-91
2022/03/02 07:46:00;;;;;;;22.23;8.67;;;;;;;;;;6183123;23;20627;-91
2022/03/02 07:49:07;;;;;;;26.30;9.83;;;;;;;;;;6197530;23;20163;-90
2022/03/02 07:52:12;;;;;;;20.87;8.63;;;;;;;;;;6182964;23;20282;-90
2022/03/02 07:55:18;;;;;;;22.27;9.33;;;;;;;;;;6200016;23;20163;-90
2022/03/02 07:58:23;;;;;;;21.93;9.73;;;;;;;;;;6199994;23;20234;-90
2022/03/02 08:01:31;;;;;;;31.77;10.67;;;;;;;;;;6201334;23;20155;-91
2022/03/02 08:04:39;;;;;;;30.37;11.60;;;;;;;;;;6183273;23;20171;-91
2022/03/02 08:07:44;;;;;;;27.23;9.23;;;;;;;;;;6180225;23;20206;-89
2022/03/02 08:10:53;;;;;;;23.13;8.67;;;;;;;;;;6198049;23;20238;-90
2022/03/02 08:14:01;;;;;;;23.90;10.00;;;;;;;;;;6201908;23;20172;-90
2022/03/02 08:17:06;;;;;;;21.17;9.37;;;;;;;;;;6186857;23;20191;-90
2022/03/02 08:20:30;;;;;;;22.33;9.40;;;;;;;;;;6201447;23;20183;-90
2022/03/02 08:23:50;;;;;;;21.83;9.43;;;;;;;;;;6178586;23;20176;-90
2022/03/02 08:26:58;;;;;;;24.13;9.17;;;;;;;;;;6196256;23;20199;-89
2022/03/02 08:30:06;;;;;;;26.40;9.33;;;;;;;;;;6198926;23;20249;-91
2022/03/02 08:33:14;;;;;;;20.07;8.00;;;;;;;;;;6200259;23;20171;-91
2022/03/02 08:36:21;;;;;;;30.43;9.50;;;;;;;;;;6197173;23;20196;-90
2022/03/02 08:39:29;;;;;;;17.27;8.60;;;;;;;;;;6178587;23;20168;-89
2022/03/02 08:42:34;;;;;;;23.43;9.23;;;;;;;;;;6181887;23;20180;-91
2022/03/02 08:45:39;;;;;;;23.17;8.60;;;;;;;;;;6196865;23;20176;-90
2022/03/02 08:48:45;;;;;;;28.77;8.97;;;;;;;;;;6199302;23;20164;-90
2022/03/02 08:51:52;;;;;;;22.20;9.37;;;;;;;;;;6196775;23;20619;-90
2022/03/02 08:54:58;;;;;;;23.90;9.83;;;;;;;;;;6196046;23;20171;-91
2022/03/02 08:58:04;;;;;;;22.53;8.73;;;;;;;;;;6197836;23;20244;-91
2022/03/02 09:01:12;;;;;;;18.07;8.20;;;;;;;;;;6198346;23;20172;-90
2022/03/02 09:04:18;;;;;;;25.63;9.30;;;;;;;;;;6198460;23;20184;-90
2022/03/02 09:07:23;;;;;;;19.83;8.10;;;;;;;;;;6197947;23;20258;-91
2022/03/02 09:10:30;;;;;;;19.87;8.77;;;;;;;;;;6198179;23;20176;-91
2022/03/02 09:13:36;;;;;;;22.33;9.87;;;;;;;;;;6198538;23;20175;-91
2022/03/02 09:16:41;;;;;;;27.67;9.43;;;;;;;;;;6200506;23;20195;-91
2022/03/02 09:19:47;;;;;;;28.00;10.53;;;;;;;;;;6199284;23;20171;-91
2022/03/02 09:22:54;;;;;;;24.53;9.13;;;;;;;;;;6173487;23;20192;-91
2022/03/02 09:26:05;;;;;;;23.80;8.73;;;;;;;;;;6170193;23;20169;-92
2022/03/02 09:29:11;;;;;;;22.67;9.00;;;;;;;;;;6170864;23;20208;-91
2022/03/02 09:32:17;;;;;;;28.43;9.17;;;;;;;;;;6170328;23;20168;-91
2022/03/02 09:35:22;;;;;;;21.83;9.30;;;;;;;;;;6170815;23;20160;-90
2022/03/02 09:38:30;;;;;;;25.93;9.60;;;;;;;;;;6168691;23;20511;-91
2022/03/02 09:41:41;;;;;;;27.67;9.30;;;;;;;;;;6185629;23;20172;-90
2022/03/02 09:44:49;;;;;;;24.17;8.93;;;;;;;;;;6167124;23;20172;-90
2022/03/02 09:47:56;;;;;;;23.90;9.37;;;;;;;;;;6168025;23;20229;-89
2022/03/02 19:13:27;;;;;;;26.50;10.43;;;;;;;;;;6175324;23;20216;-89
2022/03/02 19:16:33;;;;;;;28.27;10.37;;;;;;;;;;6182698;23;20179;-92
2022/03/02 19:19:38;;;;;;;25.13;9.70;;;;;;;;;;6182061;23;20160;-92
2022/03/02 19:22:44;;;;;;;24.93;9.30;;;;;;;;;;6200037;23;20169;-92
2022/03/02 19:25:52;;;;;;;31.50;9.10;;;;;;;;;;6202526;23;20184;-90
2022/03/02 19:28:59;;;;;;;25.50;9.40;;;;;;;;;;6185167;23;20212;-92
2022/03/02 19:32:05;;;;;;;28.77;10.00;;;;;;;;;;6204645;23;20167;-90
2022/03/02 19:35:11;;;;;;;28.53;10.63;;;;;;;;;;6205560;23;20236;-91
2022/03/02 19:41:42;;;;;;;26.80;9.87;;;;;;;;;;6199924;23;20176;-89
2022/03/02 19:44:48;;;;;;;33.80;11.43;;;;;;;;;;6199141;23;20512;-90
2022/03/02 19:47:55;;;;;;;25.43;10.40;;;;;;;;;;6181420;23;20175;-91
2022/03/02 19:51:01;;;;;;;40.10;11.73;;;;;;;;;;6198948;23;20147;-90
2022/03/02 19:54:11;;;;;;;33.87;12.83;;;;;;;;;;6180796;23;20216;-89
2022/03/02 19:57:16;;;;;;;36.03;11.67;;;;;;;;;;6198671;23;20178;-91
2022/03/02 20:00:22;;;;;;;31.13;10.80;;;;;;;;;;6181220;23;20184;-90
2022/03/02 20:03:30;;;;;;;30.67;10.77;;;;;;;;;;6179459;23;20614;-90
2022/03/02 20:06:35;;;;;;;32.17;11.50;;;;;;;;;;6180456;23;20224;-90
2022/03/02 20:09:41;;;;;;;31.77;11.17;;;;;;;;;;6178807;23;20171;-88
2022/03/02 20:12:46;;;;;;;26.40;10.83;;;;;;;;;;6180400;23;20191;-91
2022/03/02 20:15:53;;;;;;;32.10;10.47;;;;;;;;;;6180537;23;20164;-89
2022/03/02 20:18:58;;;;;;;31.90;10.93;;;;;;;;;;6180079;23;20263;-91
2022/03/02 20:22:04;;;;;;;28.83;11.17;;;;;;;;;;6181561;23;20183;-91
2022/03/02 20:25:09;;;;;;;25.97;11.10;;;;;;;;;;6179842;23;20179;-90
2022/03/02 20:28:16;;;;;;;24.33;10.87;;;;;;;;;;6199231;23;20176;-89
2022/03/02 20:31:23;;;;;;;26.33;10.93;;;;;;;;;;6180682;23;20180;-90
2022/03/02 20:34:29;;;;;;;32.73;12.03;;;;;;;;;;6180702;23;20167;-91
2022/03/02 20:37:35;;;;;;;31.87;10.70;;;;;;;;;;6182627;23;20195;-91
2022/03/02 20:40:40;;;;;;;28.67;11.37;;;;;;;;;;6183503;23;20179;-90
2022/03/02 20:43:46;;;;;;;27.00;11.10;;;;;;;;;;6181480;23;20592;-91
2022/03/02 20:46:52;;;;;;;25.20;10.53;;;;;;;;;;6183641;23;20246;-89
2022/03/02 20:49:58;;;;;;;32.60;10.80;;;;;;;;;;6184804;23;20172;-89
2022/03/02 20:53:04;;;;;;;31.30;10.90;;;;;;;;;;6180422;23;20496;-90
2022/03/02 20:56:11;;;;;;;34.37;11.83;;;;;;;;;;6183755;23;20196;-91
2022/03/02 20:59:16;;;;;;;29.20;11.83;;;;;;;;;;6182851;23;20188;-91
2022/03/02 21:02:22;;;;;;;30.83;10.90;;;;;;;;;;6183733;23;20204;-89
2022/03/02 21:05:27;;;;;;;33.83;12.67;;;;;;;;;;6183649;23;20223;-90
2022/03/02 21:08:32;;;;;;;36.80;12.37;;;;;;;;;;6183436;23;20172;-91
2022/03/02 21:11:38;;;;;;;28.60;12.13;;;;;;;;;;6183790;23;20496;-89
2022/03/02 21:14:43;;;;;;;31.07;11.40;;;;;;;;;;6172523;23;20188;-90
2022/03/02 21:17:50;;;;;;;85.63;24.10;;;;;;;;;;6172188;23;20192;-90
2022/03/02 21:20:56;;;;;;;73.97;21.23;;;;;;;;;;6171043;23;20885;-90
2022/03/02 21:24:02;;;;;;;31.23;11.17;;;;;;;;;;6170196;23;20228;-90
2022/03/02 21:27:07;;;;;;;24.57;9.93;;;;;;;;;;6169750;23;20212;-90
2022/03/02 21:30:12;;;;;;;24.33;10.50;;;;;;;;;;6169082;23;20168;-90
2022/03/02 21:33:19;;;;;;;23.60;9.47;;;;;;;;;;6168347;23;20180;-90
2022/03/02 21:36:24;;;;;;;28.77;10.37;;;;;;;;;;6166028;23;20238;-90
2022/03/02 21:39:29;;;;;;;26.83;10.63;;;;;;;;;;6170086;23;20196;-90
2022/03/02 21:42:34;;;;;;;27.17;10.03;;;;;;;;;;6170745;23;20177;-90
2022/03/02 21:45:39;;;;;;;56.37;18.40;;;;;;;;;;6170013;23;20213;-91
2022/03/02 21:48:46;;;;;;;24.70;9.90;;;;;;;;;;6171995;23;20180;-90
2022/03/02 21:51:51;;;;;;;30.10;10.80;;;;;;;;;;6174165;23;20169;-91
2022/03/02 21:54:55;;;;;;;30.47;10.27;;;;;;;;;;6174336;23;20156;-89
2022/03/02 21:58:01;;;;;;;21.03;8.90;;;;;;;;;;6173272;23;20276;-90
2022/03/02 22:01:06;;;;;;;24.63;9.60;;;;;;;;;;6172190;23;20156;-89
2022/03/02 22:04:13;;;;;;;32.83;11.20;;;;;;;;;;6170535;23;20168;-90
2022/03/02 22:07:18;;;;;;;27.57;10.47;;;;;;;;;;6170488;23;20176;-90
2022/03/02 22:10:24;;;;;;;27.20;10.70;;;;;;;;;;6172539;23;20236;-90
2022/03/02 22:13:29;;;;;;;25.93;10.13;;;;;;;;;;6169509;23;20184;-91
2022/03/02 22:16:34;;;;;;;29.83;11.13;;;;;;;;;;6168179;23;20168;-88
2022/03/02 22:19:41;;;;;;;22.83;9.80;;;;;;;;;;6165684;23;20278;-91
2022/03/02 22:22:46;;;;;;;24.30;10.43;;;;;;;;;;6166988;23;20219;-89
2022/03/02 22:25:52;;;;;;;39.83;11.20;;;;;;;;;;6169177;23;20288;-90
2022/03/02 22:28:57;;;;;;;25.33;10.67;;;;;;;;;;6166564;23;20212;-89
2022/03/02 22:32:06;;;;;;;27.57;10.90;;;;;;;;;;6169015;23;20167;-89
2022/03/02 22:35:13;;;;;;;26.03;10.40;;;;;;;;;;6168971;23;20168;-90
2022/03/02 22:38:18;;;;;;;33.27;10.80;;;;;;;;;;6167341;23;20193;-91
2022/03/02 22:41:23;;;;;;;31.27;11.30;;;;;;;;;;6167964;23;20153;-90
2022/03/02 22:44:28;;;;;;;32.00;10.53;;;;;;;;;;6168019;23;20168;-91
2022/03/02 22:47:34;;;;;;;24.53;9.97;;;;;;;;;;6166748;23;20164;-90
2022/03/02 22:50:40;;;;;;;27.90;10.63;;;;;;;;;;6167239;23;20180;-90
2022/03/02 22:53:45;;;;;;;29.30;11.00;;;;;;;;;;6166182;23;20238;-91
2022/03/02 22:56:50;;;;;;;25.27;10.77;;;;;;;;;;6166216;23;20176;-91
2022/03/02 22:59:56;;;;;;;27.20;10.80;;;;;;;;;;6169089;23;20246;-90
2022/03/02 23:03:01;;;;;;;26.27;10.73;;;;;;;;;;6167806;23;20160;-90
2022/03/02 23:16:17;;;;;;;27.77;11.13;;;;;;;;;;6183729;23;20207;-90
2022/03/02 23:19:22;;;;;;;26.70;11.07;;;;;;;;;;6181565;23;20264;-90
2022/03/02 23:22:28;;;;;;;27.07;11.07;;;;;;;;;;6181521;23;20151;-89
2022/03/02 23:25:34;;;;;;;23.80;10.00;;;;;;;;;;6181196;23;20228;-89
2022/03/02 23:28:39;;;;;;;29.60;10.93;;;;;;;;;;6179490;23;20168;-90
2022/03/02 23:31:44;;;;;;;27.10;10.27;;;;;;;;;;6182125;23;20236;-89
2022/03/02 23:34:50;;;;;;;27.43;10.70;;;;;;;;;;6200711;23;20623;-90
2022/03/02 23:37:56;;;;;;;27.23;10.30;;;;;;;;;;6179559;23;20247;-90
2022/03/02 23:41:01;;;;;;;27.13;10.20;;;;;;;;;;6179566;23;20607;-90
2022/03/02 23:44:06;;;;;;;28.07;10.60;;;;;;;;;;6179477;23;20176;-88
2022/03/02 23:47:11;;;;;;;24.57;10.17;;;;;;;;;;6179908;23;20184;-91
2022/03/02 23:50:16;;;;;;;27.40;10.90;;;;;;;;;;6180688;23;20172;-91
2022/03/02 23:53:22;;;;;;;27.00;10.70;;;;;;;;;;6178359;23;20270;-89
2022/03/02 23:56:27;;;;;;;23.73;10.40;;;;;;;;;;6178794;23;20215;-90
2022/03/02 23:59:33;;;;;;;24.70;10.17;;;;;;;;;;6177539;23;20759;-91
